Time;durP1;ratioP1;P1;durP2;ratioP2;P2;SDS_P1;SDS_P2;PMS_P1;PMS_P2;Temp;Humidity;BMP_temperature;BMP_pressure;BME280_temperature;BME280_humidity;BME280_pressure;Samples;Min_cycle;Max_cycle;Signal;HPM_P1;HPM_P2
2022/12/10 00:00:04;;;;;;;10.97;5.47;;;;;;;-2.84;100.00;100220.84;4933264;29;20043;-82
2022/12/10 00:02:31;;;;;;;11.80;5.97;;;;;;;-2.83;100.00;100220.00;4901802;29;20046;-82
2022/12/10 00:04:58;;;;;;;10.73;5.30;;;;;;;-2.86;100.00;100214.78;4903040;29;20408;-82
2022/12/10 00:07:25;;;;;;;11.07;6.27;;;;;;;-2.62;100.00;100217.09;4930660;29;20551;-82
2022/12/10 00:09:52;;;;;;;9.93;5.30;;;;;;;-2.43;100.00;100223.63;4923007;29;20086;-83
2022/12/10 00:12:19;;;;;;;10.77;5.57;;;;;;;-2.57;100.00;100220.66;4903164;29;20112;-83
2022/12/10 00:14:46;;;;;;;10.83;5.90;;;;;;;-2.68;100.00;100216.06;4906224;29;20043;-82
2022/12/10 00:17:13;;;;;;;12.43;5.80;;;;;;;-2.72;100.00;100209.06;4928585;29;20053;-83
2022/12/10 00:19:39;;;;;;;10.30;5.00;;;;;;;-2.75;100.00;100215.03;4921621;29;20078;-82
2022/12/10 00:22:06;;;;;;;12.20;6.57;;;;;;;-2.73;100.00;100212.50;4921445;29;20051;-83
2022/12/10 00:24:33;;;;;;;13.40;6.73;;;;;;;-2.62;100.00;100208.44;4904297;29;20111;-83
2022/12/10 00:27:00;;;;;;;11.90;6.37;;;;;;;-2.41;100.00;100213.28;4920619;29;20047;-81
2022/12/10 00:29:26;;;;;;;12.53;7.10;;;;;;;-2.45;100.00;100214.91;4924436;28;20053;-83
2022/12/10 00:31:53;;;;;;;12.23;6.53;;;;;;;-2.58;100.00;100220.63;4935298;29;20524;-82
2022/12/10 00:34:20;;;;;;;12.53;6.43;;;;;;;-2.64;100.00;100217.88;4920633;29;22083;-82
2022/12/10 00:36:48;;;;;;;12.67;6.80;;;;;;;-2.48;100.00;100207.09;4905042;29;20077;-78
2022/12/10 00:39:18;;;;;;;11.73;6.10;;;;;;;-2.56;100.00;100206.91;4904874;29;20043;-83
2022/12/10 00:41:46;;;;;;;10.53;6.30;;;;;;;-2.67;100.00;100212.66;4901506;29;20580;-83
2022/12/10 00:44:14;;;;;;;12.67;5.70;;;;;;;-2.73;100.00;100210.78;4920457;28;20047;-83
2022/12/10 00:46:40;;;;;;;10.93;5.40;;;;;;;-2.77;100.00;100213.25;4905247;29;20052;-82
2022/12/10 00:49:07;;;;;;;8.27;4.67;;;;;;;-2.68;100.00;100209.19;4942969;29;20047;-83
2022/12/10 00:51:33;;;;;;;13.17;6.47;;;;;;;-2.75;100.00;100206.41;4904022;28;20047;-82
2022/12/10 00:54:00;;;;;;;12.97;6.13;;;;;;;-2.92;100.00;100213.72;4903582;29;20047;-81
2022/12/10 00:56:30;;;;;;;12.33;6.17;;;;;;;-2.89;100.00;100222.41;4919735;29;20043;-81
2022/12/10 00:58:57;;;;;;;10.57;5.23;;;;;;;-2.91;100.00;100224.09;4933405;29;20047;-82
2022/12/10 01:01:31;;;;;;;11.47;5.93;;;;;;;-3.06;100.00;100230.56;4895839;29;20052;-82
2022/12/10 01:04:04;;;;;;;13.98;6.78;;;;;;;-2.90;100.00;100225.84;4935232;29;20075;-82
2022/12/10 01:06:34;;;;;;;11.10;6.43;;;;;;;-2.93;100.00;100223.19;4925198;29;20040;-82
2022/12/10 01:09:06;;;;;;;13.53;6.60;;;;;;;-2.92;100.00;100227.53;4903552;29;20564;-82
2022/12/10 01:11:37;;;;;;;13.47;6.53;;;;;;;-2.81;100.00;100226.91;4918935;29;20632;-82
2022/12/10 01:14:05;;;;;;;11.80;6.70;;;;;;;-2.95;100.00;100230.00;4903461;28;20071;-82
2022/12/10 01:16:32;;;;;;;12.47;7.33;;;;;;;-2.97;100.00;100229.09;4917459;29;20047;-81
2022/12/10 01:18:59;;;;;;;20.20;7.33;;;;;;;-3.01;100.00;100237.63;4919212;29;20415;-81
2022/12/10 01:21:28;;;;;;;14.03;6.63;;;;;;;-2.90;100.00;100230.13;4902721;29;20043;-81
2022/12/10 01:23:56;;;;;;;13.40;6.50;;;;;;;-2.86;100.00;100234.53;4911764;29;20051;-81
2022/12/10 01:26:25;;;;;;;15.23;7.10;;;;;;;-2.80;100.00;100233.84;4916111;29;20409;-81
2022/12/10 01:28:52;;;;;;;14.63;6.87;;;;;;;-2.99;100.00;100229.91;4935251;29;20086;-82
2022/12/10 01:31:21;;;;;;;14.40;6.43;;;;;;;-2.87;100.00;100232.78;4916575;28;20050;-81
2022/12/10 01:33:49;;;;;;;14.13;8.07;;;;;;;-2.89;100.00;100229.31;4927107;29;20043;-82
2022/12/10 01:36:21;;;;;;;13.37;7.50;;;;;;;-2.83;100.00;100234.66;4906442;28;20039;-81
2022/12/10 01:38:48;;;;;;;14.83;7.83;;;;;;;-2.66;100.00;100237.66;4917599;28;20055;-82
2022/12/10 01:41:23;;;;;;;15.40;7.57;;;;;;;-2.67;100.00;100234.22;4919833;29;20058;-82
2022/12/10 01:43:51;;;;;;;16.37;8.30;;;;;;;-2.72;100.00;100235.78;4919819;29;20047;-81
2022/12/10 01:46:19;;;;;;;16.33;8.03;;;;;;;-2.83;100.00;100238.09;4900093;29;20500;-80
2022/12/10 01:48:46;;;;;;;14.03;7.20;;;;;;;-2.72;100.00;100232.31;4919419;29;20078;-80
2022/12/10 01:51:14;;;;;;;14.40;7.67;;;;;;;-2.69;100.00;100229.81;4919262;29;20035;-81
2022/12/10 01:53:42;;;;;;;13.60;7.73;;;;;;;-2.71;100.00;100234.94;4899720;29;20047;-80
2022/12/10 01:56:12;;;;;;;16.00;8.37;;;;;;;-2.70;100.00;100228.94;4920992;29;20054;-80
2022/12/10 01:58:39;;;;;;;15.77;8.13;;;;;;;-2.61;100.00;100231.78;4901900;28;20055;-80
2022/12/10 02:01:31;;;;;;;15.33;7.47;;;;;;;-2.65;100.00;100229.06;4904708;29;20040;-80
2022/12/10 02:04:07;;;;;;;15.13;8.13;;;;;;;-2.54;100.00;100227.63;4914837;29;20078;-80
2022/12/10 02:06:46;;;;;;;13.43;6.57;;;;;;;-2.42;100.00;100225.34;4916917;29;20039;-80
2022/12/10 02:09:27;;;;;;;14.87;7.57;;;;;;;-2.57;100.00;100233.59;4908795;29;20071;-80
2022/12/10 02:12:02;;;;;;;15.53;7.40;;;;;;;-2.52;100.00;100227.66;4905134;29;20137;-80
2022/12/10 02:14:54;;;;;;;15.27;8.47;;;;;;;-2.65;100.00;100226.50;4899551;29;20116;-80
2022/12/10 02:17:27;;;;;;;14.17;8.57;;;;;;;-2.68;100.00;100224.72;4896831;29;20071;-80
2022/12/10 02:20:06;;;;;;;15.40;7.83;;;;;;;-2.69;100.00;100229.81;4894839;29;20048;-81
2022/12/10 02:22:40;;;;;;;16.73;8.40;;;;;;;-2.75;100.00;100240.91;4882123;29;20103;-80
2022/12/10 02:25:08;;;;;;;14.13;6.28;;;;;;;-2.76;100.00;100231.38;4892781;29;20063;-81
2022/12/10 02:27:46;;;;;;;15.10;7.23;;;;;;;-2.59;100.00;100237.88;4901484;29;20600;-80
2022/12/10 02:30:13;;;;;;;13.70;7.43;;;;;;;-2.62;100.00;100232.59;4884823;29;20054;-80
2022/12/10 02:32:43;;;;;;;16.87;8.23;;;;;;;-2.68;100.00;100227.28;4922466;29;20047;-79
2022/12/10 02:35:15;;;;;;;17.30;7.90;;;;;;;-2.57;100.00;100235.31;4883694;29;20095;-81
2022/12/10 02:37:49;;;;;;;14.03;7.60;;;;;;;-2.64;100.00;100228.22;4884344;29;20040;-80
2022/12/10 02:40:20;;;;;;;15.98;8.05;;;;;;;-2.57;100.00;100227.56;4900832;29;20071;-81
2022/12/10 02:42:49;;;;;;;13.57;7.43;;;;;;;-2.53;100.00;100229.38;4889009;29;20111;-80
2022/12/10 02:45:20;;;;;;;14.80;7.77;;;;;;;-2.50;100.00;100226.88;4892675;29;20525;-79
2022/12/10 02:47:47;;;;;;;13.47;7.27;;;;;;;-2.53;100.00;100233.66;4882388;29;20048;-80
2022/12/10 02:50:16;;;;;;;14.63;7.30;;;;;;;-2.60;100.00;100225.78;4894502;29;20478;-80
2022/12/10 02:52:44;;;;;;;15.60;7.40;;;;;;;-2.60;100.00;100235.25;4887211;29;20044;-80
2022/12/10 02:55:12;;;;;;;15.33;8.03;;;;;;;-2.52;100.00;100233.72;4883840;29;20044;-80
2022/12/10 02:58:21;;;;;;;13.60;7.33;;;;;;;-2.46;100.00;100239.03;4888377;29;20075;-80
2022/12/10 03:00:58;;;;;;;15.50;7.43;;;;;;;-2.65;100.00;100236.81;4904260;29;20055;-80
2022/12/10 03:03:38;;;;;;;13.73;6.50;;;;;;;-2.70;100.00;100238.41;4930881;29;20039;-80
2022/12/10 03:06:16;;;;;;;14.40;6.97;;;;;;;-2.75;100.00;100240.03;4932524;29;20059;-80
2022/12/10 03:08:50;;;;;;;13.47;6.90;;;;;;;-2.76;100.00;100238.28;4920564;29;20039;-80
2022/12/10 03:11:18;;;;;;;15.02;7.57;;;;;;;-2.72;100.00;100240.09;4901828;29;20413;-80
2022/12/10 03:13:55;;;;;;;14.97;7.93;;;;;;;-2.66;100.00;100238.53;4900517;29;20634;-81
2022/12/10 03:16:28;;;;;;;16.17;8.60;;;;;;;-2.74;100.00;100231.41;4905780;29;20090;-80
2022/12/10 03:19:00;;;;;;;14.50;7.70;;;;;;;-2.70;100.00;100231.53;4942541;28;20054;-80
2022/12/10 03:21:31;;;;;;;13.43;6.97;;;;;;;-2.51;100.00;100232.91;4922601;28;20050;-80
2022/12/10 03:24:02;;;;;;;12.57;7.20;;;;;;;-2.45;100.00;100224.38;4901483;28;20047;-80
2022/12/10 03:26:29;;;;;;;15.40;8.13;;;;;;;-2.69;100.00;100233.31;4933138;28;20043;-80
2022/12/10 03:29:00;;;;;;;15.60;8.03;;;;;;;-2.73;100.00;100233.16;4903645;29;20107;-80
2022/12/10 03:31:28;;;;;;;15.20;7.30;;;;;;;-2.56;100.00;100237.06;4918392;29;20044;-81
2022/12/10 03:33:55;;;;;;;14.13;7.27;;;;;;;-2.75;100.00;100235.72;4896170;29;20047;-80
2022/12/10 03:36:22;;;;;;;15.37;6.97;;;;;;;-2.80;100.00;100241.59;4905477;29;20385;-80
2022/12/10 03:38:49;;;;;;;13.60;7.40;;;;;;;-2.91;100.00;100239.59;4905824;28;20110;-79
2022/12/10 03:41:16;;;;;;;12.90;7.90;;;;;;;-2.83;100.00;100237.22;4906554;29;20071;-80
2022/12/10 03:43:53;;;;;;;12.77;7.40;;;;;;;-2.72;100.00;100240.09;4927001;28;20045;-80
2022/12/10 03:46:20;;;;;;;12.23;6.77;;;;;;;-2.79;100.00;100241.63;4906016;29;20051;-80
2022/12/10 03:48:47;;;;;;;13.80;7.90;;;;;;;-2.86;100.00;100244.88;4923606;29;20070;-81
2022/12/10 03:51:14;;;;;;;12.57;6.93;;;;;;;-2.90;100.00;100237.91;4947252;29;20036;-80
2022/12/10 03:53:41;;;;;;;16.00;7.83;;;;;;;-3.03;100.00;100239.25;4923929;28;20073;-80
2022/12/10 03:56:08;;;;;;;12.73;7.03;;;;;;;-2.93;100.00;100236.13;4935466;29;20043;-80
2022/12/10 03:58:35;;;;;;;12.20;6.43;;;;;;;-2.78;100.00;100230.44;4907150;29;20497;-80
2022/12/10 04:01:03;;;;;;;13.53;7.13;;;;;;;-2.86;100.00;100231.97;4936640;29;20114;-80
2022/12/10 04:03:30;;;;;;;11.93;7.23;;;;;;;-3.05;100.00;100235.75;4903489;29;20171;-80
2022/12/10 04:06:04;;;;;;;10.83;6.20;;;;;;;-3.09;100.00;100244.28;4906648;29;20074;-80
2022/12/10 04:08:31;;;;;;;10.07;6.03;;;;;;;-3.25;100.00;100249.84;4919241;29;20073;-80
2022/12/10 04:11:05;;;;;;;12.87;7.20;;;;;;;-3.26;100.00;100248.97;4907966;29;20043;-80
2022/12/10 04:16:27;;;;;;;12.13;5.90;;;;;;;-3.27;100.00;100236.91;4925232;29;20587;-81
2022/12/10 04:19:00;;;;;;;10.93;6.77;;;;;;;-3.46;100.00;100240.63;4924303;29;20047;-80
2022/12/10 04:27:04;;;;;;;11.37;6.20;;;;;;;-3.72;100.00;100236.41;4923541;29;20489;-80
2022/12/10 04:29:31;;;;;;;10.70;6.03;;;;;;;-3.80;100.00;100233.59;4922058;28;20509;-79
2022/12/10 04:31:58;;;;;;;9.67;5.77;;;;;;;-3.89;100.00;100235.91;4921973;29;20452;-81
2022/12/10 04:34:25;;;;;;;11.40;5.60;;;;;;;-3.88;100.00;100231.63;4938279;29;20404;-80
2022/12/10 04:36:52;;;;;;;8.23;5.87;;;;;;;-3.92;100.00;100234.97;4925050;29;20464;-81
2022/12/10 04:39:19;;;;;;;12.30;6.63;;;;;;;-3.87;100.00;100238.53;4906637;29;20066;-80
2022/12/10 04:41:48;;;;;;;11.87;6.27;;;;;;;-3.90;100.00;100233.28;4920197;29;20035;-80
2022/12/10 04:44:15;;;;;;;11.60;6.00;;;;;;;-3.83;100.00;100240.41;4921806;29;20083;-79
2022/12/10 04:46:42;;;;;;;13.17;6.33;;;;;;;-3.82;100.00;100249.88;4921753;29;20032;-80
2022/12/10 04:49:08;;;;;;;11.57;5.97;;;;;;;-3.87;100.00;100243.69;4906916;28;20062;-80
2022/12/10 04:51:35;;;;;;;10.57;6.57;;;;;;;-3.74;100.00;100243.25;4907041;29;20051;-77
2022/12/10 04:54:02;;;;;;;11.27;6.20;;;;;;;-3.70;100.00;100243.41;4928348;28;20038;-77
2022/12/10 04:56:30;;;;;;;11.00;6.17;;;;;;;-3.72;100.00;100249.31;4925257;29;20042;-78
2022/12/10 04:58:57;;;;;;;10.93;6.03;;;;;;;-3.79;100.00;100243.09;4923507;28;20039;-77
2022/12/10 05:01:24;;;;;;;9.87;5.93;;;;;;;-3.86;100.00;100240.31;4924232;29;20039;-78
2022/12/10 05:03:51;;;;;;;11.93;6.70;;;;;;;-3.76;100.00;100244.91;4910206;28;20066;-77
2022/12/10 05:06:19;;;;;;;10.50;6.40;;;;;;;-3.67;100.00;100231.41;4959518;28;20120;-79
2022/12/10 05:08:46;;;;;;;9.90;6.40;;;;;;;-3.65;100.00;100237.47;4928815;28;20512;-78
2022/12/10 05:11:18;;;;;;;10.00;6.40;;;;;;;-3.75;100.00;100236.34;4920947;29;20036;-78
2022/12/10 05:13:45;;;;;;;10.67;6.37;;;;;;;-3.85;100.00;100242.06;4906067;29;20043;-78
2022/12/10 05:16:16;;;;;;;12.70;6.47;;;;;;;-3.92;100.00;100242.69;4923415;29;20043;-77
2022/12/10 05:18:43;;;;;;;10.70;7.33;;;;;;;-3.80;100.00;100240.47;4907226;29;20044;-78
2022/12/10 05:21:12;;;;;;;11.10;6.00;;;;;;;-3.80;100.00;100237.91;4927885;29;20031;-78
2022/12/10 05:23:42;;;;;;;11.30;6.53;;;;;;;-3.67;100.00;100244.31;4940669;29;20039;-78
2022/12/10 05:26:11;;;;;;;11.30;7.37;;;;;;;-3.73;100.00;100237.25;4916808;28;20043;-78
2022/12/10 05:28:43;;;;;;;10.93;6.13;;;;;;;-3.78;100.00;100238.84;4926285;28;20106;-78
2022/12/10 05:31:15;;;;;;;11.80;6.37;;;;;;;-3.87;100.00;100243.69;4923975;29;20043;-79
2022/12/10 05:33:41;;;;;;;10.27;6.40;;;;;;;-3.77;100.00;100240.59;4909749;29;20066;-77
2022/12/10 05:36:10;;;;;;;11.10;6.80;;;;;;;-3.87;100.00;100246.28;4922906;29;20082;-78
2022/12/10 05:38:37;;;;;;;9.93;5.93;;;;;;;-3.88;100.00;100257.44;4931211;28;20072;-77
2022/12/10 05:41:05;;;;;;;8.57;6.07;;;;;;;-3.93;100.00;100243.53;4920984;29;20098;-77
2022/12/10 05:43:32;;;;;;;10.73;6.20;;;;;;;-3.86;100.00;100253.22;4923683;29;20043;-78
2022/12/10 05:46:06;;;;;;;11.13;6.33;;;;;;;-3.80;100.00;100250.81;4924740;29;20493;-79
2022/12/10 05:48:33;;;;;;;10.63;6.60;;;;;;;-3.74;100.00;100251.88;4915977;28;20070;-78
2022/12/10 05:51:05;;;;;;;10.50;6.10;;;;;;;-3.73;100.00;100245.88;5003386;23;20054;-81
2022/12/10 05:53:32;;;;;;;11.33;6.90;;;;;;;-3.71;100.00;100253.66;4937858;29;20043;-81
2022/12/10 05:56:04;;;;;;;12.93;7.10;;;;;;;-3.62;100.00;100255.63;4942778;28;20047;-80
2022/12/10 05:58:31;;;;;;;10.80;6.83;;;;;;;-3.70;100.00;100252.81;4931194;29;20043;-80
2022/12/10 06:00:59;;;;;;;10.20;6.40;;;;;;;-3.65;100.00;100261.59;4936736;29;20394;-81
2022/12/10 06:03:28;;;;;;;12.53;7.67;;;;;;;-3.67;100.00;100255.53;4936171;29;20042;-81
2022/12/10 06:05:55;;;;;;;13.40;7.57;;;;;;;-3.63;100.00;100262.50;4926320;29;20459;-80
2022/12/10 06:08:22;;;;;;;15.23;7.20;;;;;;;-3.59;100.00;100256.63;4953429;28;20392;-80
2022/12/10 06:10:48;;;;;;;11.60;7.17;;;;;;;-3.47;100.00;100263.84;4937094;29;20047;-80
2022/12/10 06:13:15;;;;;;;13.07;8.07;;;;;;;-3.29;100.00;100260.91;4924520;29;20435;-79
2022/12/10 06:15:42;;;;;;;12.07;7.03;;;;;;;-3.40;100.00;100270.94;4926608;29;20071;-80
2022/12/10 06:18:09;;;;;;;15.10;7.70;;;;;;;-3.55;100.00;100263.63;4927358;29;20051;-81
2022/12/10 06:20:39;;;;;;;13.80;8.00;;;;;;;-3.66;100.00;100258.97;4940540;29;20043;-82
2022/12/10 06:23:13;;;;;;;12.33;6.80;;;;;;;-3.45;100.00;100268.25;4928994;29;20074;-82
2022/12/10 06:25:39;;;;;;;13.43;7.50;;;;;;;-3.50;100.00;100264.63;4928195;29;20042;-82
2022/12/10 06:28:07;;;;;;;11.73;7.67;;;;;;;-3.47;100.00;100267.31;4943165;28;20035;-81
2022/12/10 06:30:34;;;;;;;12.33;7.87;;;;;;;-3.36;100.00;100266.72;4942185;28;20047;-83
2022/12/10 06:33:00;;;;;;;14.40;8.17;;;;;;;-3.31;100.00;100271.22;4914826;29;20115;-82
2022/12/10 06:35:27;;;;;;;13.53;8.60;;;;;;;-3.46;100.00;100271.63;4939293;29;20069;-79
2022/12/10 06:37:54;;;;;;;15.73;8.30;;;;;;;-3.53;100.00;100277.47;4925169;28;20049;-81
2022/12/10 06:40:21;;;;;;;12.90;8.13;;;;;;;-3.42;100.00;100280.38;4927138;28;20066;-82
2022/12/10 06:42:50;;;;;;;16.20;8.30;;;;;;;-3.30;100.00;100280.69;4920958;29;20039;-82
2022/12/10 06:45:17;;;;;;;14.27;7.43;;;;;;;-3.31;100.00;100271.22;4950005;28;20066;-81
2022/12/10 06:47:44;;;;;;;16.43;8.60;;;;;;;-3.44;100.00;100282.03;4925159;29;20043;-82
2022/12/10 06:50:10;;;;;;;17.27;8.50;;;;;;;-3.50;100.00;100284.41;4921883;29;20055;-83
2022/12/10 06:52:37;;;;;;;13.70;8.00;;;;;;;-3.47;100.00;100284.50;4924766;29;20508;-81
2022/12/10 06:55:04;;;;;;;15.80;8.43;;;;;;;-3.56;100.00;100298.00;4951416;29;20471;-80
2022/12/10 06:57:31;;;;;;;12.57;8.10;;;;;;;-3.31;100.00;100298.75;4952288;29;20046;-83
2022/12/10 06:59:57;;;;;;;15.10;7.80;;;;;;;-3.27;100.00;100298.03;4918960;29;20056;-83
2022/12/10 07:02:24;;;;;;;13.70;7.97;;;;;;;-3.37;100.00;100298.56;4935381;29;20040;-83
2022/12/10 07:04:51;;;;;;;17.63;9.67;;;;;;;-3.47;100.00;100307.75;4920600;28;20440;-83
2022/12/10 07:07:18;;;;;;;15.53;8.93;;;;;;;-3.43;100.00;100310.47;4922533;28;20081;-83
2022/12/10 07:09:49;;;;;;;17.90;9.23;;;;;;;-3.25;100.00;100307.56;4920945;28;20049;-83
2022/12/10 07:12:15;;;;;;;14.70;7.90;;;;;;;-3.16;100.00;100312.13;4936522;29;20031;-84
2022/12/10 07:14:45;;;;;;;14.50;7.80;;;;;;;-3.21;100.00;100306.81;4919615;28;20043;-83
2022/12/10 07:17:11;;;;;;;12.87;8.10;;;;;;;-3.31;100.00;100302.19;4923903;29;20555;-84
2022/12/10 07:19:41;;;;;;;16.23;8.20;;;;;;;-3.12;100.00;100304.47;4953256;28;20098;-84
2022/12/10 07:22:10;;;;;;;15.37;8.80;;;;;;;-3.25;100.00;100304.09;4918853;29;20120;-83
2022/12/10 07:24:37;;;;;;;16.37;9.10;;;;;;;-3.22;100.00;100301.59;4918982;29;20461;-82
2022/12/10 07:27:08;;;;;;;16.03;9.47;;;;;;;-3.19;100.00;100301.69;4933982;29;20071;-83
2022/12/10 07:29:35;;;;;;;17.83;10.40;;;;;;;-3.14;100.00;100297.53;4934710;29;20039;-85
2022/12/10 07:32:04;;;;;;;17.57;9.40;;;;;;;-3.25;100.00;100302.41;4948922;28;20054;-85
2022/12/10 07:34:33;;;;;;;14.53;8.60;;;;;;;-3.31;100.00;100297.03;4947854;28;20126;-84
2022/12/10 07:40:03;;;;;;;19.07;10.47;;;;;;;-3.31;100.00;100303.91;4934167;28;20098;-84
2022/12/10 07:42:32;;;;;;;17.47;10.10;;;;;;;-3.27;100.00;100305.78;4962978;28;20105;-86
2022/12/10 07:45:03;;;;;;;19.97;11.03;;;;;;;-3.31;100.00;100309.94;4925395;29;20047;-87
2022/12/10 07:47:30;;;;;;;19.87;11.03;;;;;;;-3.02;100.00;100315.97;4919777;29;20043;-84
2022/12/10 07:49:57;;;;;;;18.97;10.50;;;;;;;-2.96;100.00;100318.72;4922925;29;20070;-85
2022/12/10 07:52:24;;;;;;;16.30;10.20;;;;;;;-2.99;100.00;100310.88;4922759;29;20620;-86
2022/12/10 07:54:51;;;;;;;19.47;10.00;;;;;;;-3.20;100.00;100308.56;4923580;29;21674;-85
2022/12/10 07:57:21;;;;;;;19.33;9.57;;;;;;;-3.25;100.00;100324.78;4921620;29;20047;-85
2022/12/10 07:59:48;;;;;;;20.00;10.47;;;;;;;-3.35;100.00;100325.34;4923631;28;20043;-86
2022/12/10 08:02:15;;;;;;;20.23;9.53;;;;;;;-3.19;100.00;100320.66;4923049;28;20449;-89
2022/12/10 08:04:43;;;;;;;18.30;10.63;;;;;;;-3.06;100.00;100329.63;4925478;29;20607;-85
2022/12/10 08:07:11;;;;;;;19.13;10.40;;;;;;;-3.21;100.00;100326.59;4936410;28;20061;-87
2022/12/10 08:09:39;;;;;;;18.10;10.10;;;;;;;-3.15;100.00;100332.81;4934033;29;20036;-85
2022/12/10 08:12:06;;;;;;;16.63;10.03;;;;;;;-3.18;100.00;100334.47;4938295;29;20128;-83
2022/12/10 08:14:33;;;;;;;17.43;10.10;;;;;;;-3.07;100.00;100342.50;4932799;29;20420;-83
2022/12/10 08:17:00;;;;;;;19.40;11.00;;;;;;;-3.06;100.00;100337.38;4928955;29;20427;-84
2022/12/10 08:19:26;;;;;;;19.67;10.73;;;;;;;-3.09;100.00;100336.44;4933769;28;20733;-83
2022/12/10 08:21:57;;;;;;;18.80;10.53;;;;;;;-3.08;100.00;100344.22;4934910;29;20113;-83
2022/12/10 08:24:24;;;;;;;20.93;11.10;;;;;;;-3.03;100.00;100346.91;4919186;28;20043;-84
2022/12/10 08:26:51;;;;;;;19.83;10.30;;;;;;;-2.97;100.00;100344.53;4945923;28;20564;-85
2022/12/10 08:29:18;;;;;;;18.90;10.60;;;;;;;-2.83;100.00;100359.59;4919238;29;20039;-84
2022/12/10 08:31:44;;;;;;;20.97;11.00;;;;;;;-2.80;100.00;100357.94;4946838;28;20405;-84
2022/12/10 08:34:13;;;;;;;21.33;10.60;;;;;;;-2.79;100.00;100357.09;4929461;28;20141;-83
2022/12/10 08:36:40;;;;;;;18.73;10.87;;;;;;;-2.70;100.00;100355.63;4917872;29;20051;-83
2022/12/10 08:39:07;;;;;;;18.33;10.30;;;;;;;-2.81;100.00;100357.06;4947951;28;20437;-83
2022/12/10 08:41:33;;;;;;;20.03;11.20;;;;;;;-2.66;100.00;100360.06;4919494;29;20066;-84
2022/12/10 08:44:03;;;;;;;20.00;10.30;;;;;;;-2.77;100.00;100365.78;4929700;28;20053;-84
2022/12/10 08:46:30;;;;;;;17.57;10.73;;;;;;;-2.77;100.00;100365.78;4920221;29;20055;-83
2022/12/10 08:48:57;;;;;;;20.97;11.37;;;;;;;-2.51;100.00;100364.81;4923118;29;20048;-83
2022/12/10 08:51:24;;;;;;;18.87;10.97;;;;;;;-2.56;100.00;100356.03;4918269;29;20099;-82
2022/12/10 08:53:51;;;;;;;18.83;9.47;;;;;;;-2.52;100.00;100355.28;4919257;28;20094;-83
2022/12/10 08:56:18;;;;;;;21.50;10.50;;;;;;;-2.49;100.00;100368.28;4905384;28;20050;-82
2022/12/10 08:58:44;;;;;;;18.50;10.10;;;;;;;-2.48;100.00;100364.88;4919149;28;20095;-83
2022/12/10 09:01:14;;;;;;;22.23;11.57;;;;;;;-2.39;100.00;100362.53;4904762;29;20039;-83
2022/12/10 09:03:42;;;;;;;19.43;11.33;;;;;;;-2.32;100.00;100367.03;4923828;29;20035;-83
2022/12/10 09:06:14;;;;;;;21.97;11.80;;;;;;;-2.34;100.00;100365.25;4896877;29;20047;-81
2022/12/10 09:08:41;;;;;;;20.60;11.17;;;;;;;-2.38;100.00;100366.88;4922644;29;20039;-81
2022/12/10 09:11:10;;;;;;;23.13;11.90;;;;;;;-2.29;100.00;100364.50;4915601;29;20100;-80
2022/12/10 09:13:37;;;;;;;19.50;10.53;;;;;;;-2.13;100.00;100368.38;4924351;28;20042;-82
2022/12/10 09:16:04;;;;;;;21.00;11.20;;;;;;;-2.25;100.00;100370.66;4916921;29;20043;-82
2022/12/10 09:18:31;;;;;;;18.83;11.27;;;;;;;-2.34;100.00;100373.00;4918637;28;20385;-79
2022/12/10 09:20:58;;;;;;;22.47;11.13;;;;;;;-2.17;100.00;100383.81;4917325;29;20039;-80
2022/12/10 09:23:25;;;;;;;22.03;11.17;;;;;;;-2.24;100.00;100385.34;4925883;29;20090;-81
2022/12/10 09:25:51;;;;;;;18.93;10.63;;;;;;;-2.12;100.00;100385.66;4928335;29;20050;-81
2022/12/10 09:28:18;;;;;;;18.80;10.97;;;;;;;-2.15;100.00;100377.81;4914047;29;20050;-83
2022/12/10 09:30:44;;;;;;;22.03;11.40;;;;;;;-2.17;100.00;100382.09;4919511;29;20078;-81
2022/12/10 09:33:11;;;;;;;21.30;10.23;;;;;;;-1.94;100.00;100371.44;4907334;28;20086;-81
2022/12/10 09:35:41;;;;;;;19.40;11.60;;;;;;;-1.98;100.00;100378.25;4915628;28;20054;-81
2022/12/10 09:38:08;;;;;;;19.23;10.60;;;;;;;-1.91;100.00;100372.41;4953979;28;20045;-82
2022/12/10 09:40:40;;;;;;;25.50;11.37;;;;;;;-1.88;100.00;100369.88;4933611;28;20098;-82
2022/12/10 09:43:09;;;;;;;24.53;11.93;;;;;;;-1.92;100.00;100373.25;4933131;29;20039;-79
2022/12/10 09:45:58;;;;;;;46.43;25.43;;;;;;;-1.86;100.00;100367.31;4952954;28;20035;-81
2022/12/10 09:48:32;;;;;;;25.50;14.33;;;;;;;-1.88;100.00;100364.72;4903090;29;20424;-81
2022/12/10 09:51:08;;;;;;;21.42;12.52;;;;;;;-1.83;100.00;100368.28;4914837;29;20052;-80
2022/12/10 09:53:36;;;;;;;23.10;12.63;;;;;;;-1.68;100.00;100364.31;4916932;29;20444;-80
2022/12/10 09:56:03;;;;;;;20.03;11.47;;;;;;;-1.62;100.00;100361.88;4933741;28;20115;-81
2022/12/10 09:58:30;;;;;;;20.80;11.00;;;;;;;-1.50;100.00;100363.03;4937755;29;20069;-80
2022/12/10 10:01:04;;;;;;;28.20;16.23;;;;;;;-1.52;100.00;100358.66;4941537;28;20575;-82
2022/12/10 10:03:37;;;;;;;23.70;12.63;;;;;;;-1.40;100.00;100356.34;4898476;29;20058;-82
2022/12/10 10:06:04;;;;;;;20.17;10.97;;;;;;;-1.44;100.00;100354.53;4939811;28;20046;-80
2022/12/10 10:08:41;;;;;;;20.10;11.17;;;;;;;-1.50;100.00;100346.63;4934323;29;20050;-81
2022/12/10 10:11:12;;;;;;;25.13;11.80;;;;;;;-1.42;100.00;100355.47;4929514;29;20450;-81
2022/12/10 10:13:47;;;;;;;23.80;12.50;;;;;;;-1.47;100.00;100357.94;4934286;29;20039;-81
2022/12/10 10:16:22;;;;;;;21.63;10.90;;;;;;;-1.50;100.00;100357.88;4917317;28;20044;-81
2022/12/10 10:18:58;;;;;;;28.63;14.00;;;;;;;-1.49;100.00;100364.78;4913218;29;20048;-81
2022/12/10 10:21:33;;;;;;;38.93;22.90;;;;;;;-1.39;100.00;100360.69;4958385;28;20058;-81
2022/12/10 10:23:59;;;;;;;22.85;12.73;;;;;;;-1.29;100.00;100365.25;4942357;29;20043;-82
2022/12/10 10:26:26;;;;;;;27.00;15.47;;;;;;;-1.38;100.00;100354.66;4919021;29;20043;-82
2022/12/10 10:28:59;;;;;;;27.90;13.00;;;;;;;-1.26;100.00;100359.25;4918564;29;20051;-84
2022/12/10 10:31:30;;;;;;;24.90;12.93;;;;;;;-1.40;100.00;100364.13;4915754;28;20043;-82
2022/12/10 10:34:03;;;;;;;29.40;12.70;;;;;;;-1.44;100.00;100367.47;4911268;29;20130;-83
2022/12/10 10:36:35;;;;;;;23.63;12.80;;;;;;;-1.42;100.00;100369.28;4920426;29;20572;-83
2022/12/10 10:39:20;;;;;;;25.97;13.70;;;;;;;-1.40;100.00;100371.91;4917824;29;20464;-83
2022/12/10 10:41:51;;;;;;;24.53;13.53;;;;;;;-1.06;100.00;100365.75;4949979;28;20094;-83
2022/12/10 10:44:26;;;;;;;32.77;14.20;;;;;;;-1.18;100.00;100358.59;4911707;29;20040;-85
2022/12/10 10:46:54;;;;;;;22.90;12.07;;;;;;;-1.21;100.00;100370.59;4921498;29;20054;-86
2022/12/10 10:49:21;;;;;;;22.97;12.13;;;;;;;-1.37;100.00;100365.91;4922595;28;20043;-84
2022/12/10 10:51:48;;;;;;;30.47;16.17;;;;;;;-1.11;100.00;100349.22;4942836;28;20047;-86
2022/12/10 10:54:31;;;;;;;29.27;14.57;;;;;;;-0.99;100.00;100353.81;4963267;28;20128;-86
2022/12/10 10:57:02;;;;;;;30.60;13.93;;;;;;;-1.15;100.00;100350.00;4926922;29;20074;-86
2022/12/10 10:59:31;;;;;;;31.07;12.93;;;;;;;-1.30;100.00;100349.66;4933540;28;20488;-86
2022/12/10 11:02:05;;;;;;;36.53;17.20;;;;;;;-1.22;100.00;100348.13;4935089;29;20046;-86
2022/12/10 11:04:34;;;;;;;36.63;17.77;;;;;;;-1.17;100.00;100347.38;4919552;29;20497;-85
2022/12/10 11:07:03;;;;;;;33.97;14.97;;;;;;;-0.96;100.00;100346.94;4935154;29;20563;-84
2022/12/10 11:09:32;;;;;;;26.67;12.57;;;;;;;-0.84;100.00;100343.75;4908730;29;20059;-85
2022/12/10 11:12:00;;;;;;;35.70;16.97;;;;;;;-0.82;100.00;100342.06;4923590;29;20043;-85
2022/12/10 11:14:33;;;;;;;32.87;14.83;;;;;;;-0.94;100.00;100341.78;4947652;29;20490;-86
2022/12/10 11:17:14;;;;;;;30.83;13.40;;;;;;;-0.99;100.00;100340.84;4933366;29;20139;-86
2022/12/10 11:19:46;;;;;;;36.63;13.97;;;;;;;-0.98;100.00;100342.59;4933812;28;20039;-86
2022/12/10 11:22:23;;;;;;;34.83;15.63;;;;;;;-0.82;100.00;100336.88;4921433;29;20039;-85
2022/12/10 11:24:50;;;;;;;36.33;15.97;;;;;;;-0.89;100.00;100345.38;4917332;28;20062;-86
2022/12/10 11:27:44;;;;;;;44.93;16.37;;;;;;;-0.74;100.00;100331.84;4918633;28;20043;-84